sensor_id;sensor_type;location;lat;lon;timestamp;temperature;humidity
14521;DHT22;7347;50.844;4.490;2023-03-09T10:50:55;10.70;99.90
14521;DHT22;7347;50.844;4.490;2023-03-09T10:53:33;11.00;99.90
14521;DHT22;7347;50.844;4.490;2023-03-09T10:56:09;11.10;99.90
14521;DHT22;7347;50.844;4.490;2023-03-09T10:58:38;11.10;99.90
14521;DHT22;7347;50.844;4.490;2023-03-09T11:01:10;11.30;99.90
14521;DHT22;7347;50.844;4.490;2023-03-09T11:03:45;11.20;99.90
14521;DHT22;7347;50.844;4.490;2023-03-09T11:06:40;11.30;99.90
14521;DHT22;7347;50.844;4.490;2023-03-09T11:09:11;11.40;99.90
14521;DHT22;7347;50.844;4.490;2023-03-09T11:11:40;11.50;99.90
14521;DHT22;7347;50.844;4.490;2023-03-09T11:14:20;11.70;99.90
14521;DHT22;7347;50.844;4.490;2023-03-09T11:16:49;11.60;99.90
14521;DHT22;7347;50.844;4.490;2023-03-09T11:19:17;11.60;99.90
14521;DHT22;7347;50.844;4.490;2023-03-09T11:21:50;11.60;99.90
14521;DHT22;7347;50.844;4.490;2023-03-09T11:24:18;11.70;99.90
14521;DHT22;7347;50.844;4.490;2023-03-09T11:26:50;11.80;99.90
14521;DHT22;7347;50.844;4.490;2023-03-09T11:29:25;11.80;99.90
14521;DHT22;7347;50.844;4.490;2023-03-09T11:31:54;11.70;99.90
14521;DHT22;7347;50.844;4.490;2023-03-09T11:34:25;11.30;99.90
14521;DHT22;7347;50.844;4.490;2023-03-09T11:36:57;11.20;99.90
14521;DHT22;7347;50.844;4.490;2023-03-09T11:39:30;11.10;99.90
14521;DHT22;7347;50.844;4.490;2023-03-09T11:42:00;11.20;99.90
14521;DHT22;7347;50.844;4.490;2023-03-09T11:44:31;11.30;99.90
14521;DHT22;7347;50.844;4.490;2023-03-09T11:47:03;11.30;99.90
14521;DHT22;7347;50.844;4.490;2023-03-09T11:49:31;11.30;99.90
14521;DHT22;7347;50.844;4.490;2023-03-09T11:51:59;11.40;99.90
14521;DHT22;7347;50.844;4.490;2023-03-09T11:54:30;11.20;99.90
14521;DHT22;7347;50.844;4.490;2023-03-09T11:57:01;11.20;99.90
14521;DHT22;7347;50.844;4.490;2023-03-09T11:59:36;11.60;99.90
14521;DHT22;7347;50.844;4.490;2023-03-09T12:02:12;11.90;99.90
14521;DHT22;7347;50.844;4.490;2023-03-09T12:04:40;11.80;99.90
14521;DHT22;7347;50.844;4.490;2023-03-09T12:07:15;11.90;99.90
14521;DHT22;7347;50.844;4.490;2023-03-09T12:09:51;11.90;99.90
14521;DHT22;7347;50.844;4.490;2023-03-09T12:12:24;12.10;99.90
14521;DHT22;7347;50.844;4.490;2023-03-09T12:14:55;11.80;99.90
14521;DHT22;7347;50.844;4.490;2023-03-09T12:17:29;11.80;99.90
14521;DHT22;7347;50.844;4.490;2023-03-09T12:19:57;11.80;99.90
14521;DHT22;7347;50.844;4.490;2023-03-09T12:22:30;11.80;99.90
14521;DHT22;7347;50.844;4.490;2023-03-09T12:24:59;12.00;99.90
14521;DHT22;7347;50.844;4.490;2023-03-09T12:27:28;12.10;99.90
14521;DHT22;7347;50.844;4.490;2023-03-09T12:30:09;12.30;99.90
14521;DHT22;7347;50.844;4.490;2023-03-09T12:32:39;12.50;99.90
14521;DHT22;7347;50.844;4.490;2023-03-09T12:38:20;12.50;99.90
14521;DHT22;7347;50.844;4.490;2023-03-09T12:40:48;12.50;99.90
14521;DHT22;7347;50.844;4.490;2023-03-09T12:49:33;12.50;99.90
14521;DHT22;7347;50.844;4.490;2023-03-09T12:55:02;12.70;99.90
14521;DHT22;7347;50.844;4.490;2023-03-09T12:57:30;12.70;99.90
14521;DHT22;7347;50.844;4.490;2023-03-09T13:03:05;13.10;99.90
14521;DHT22;7347;50.844;4.490;2023-03-09T13:05:42;13.30;99.90
14521;DHT22;7347;50.844;4.490;2023-03-09T13:08:21;13.30;99.90
14521;DHT22;7347;50.844;4.490;2023-03-09T13:10:50;13.30;99.90
14521;DHT22;7347;50.844;4.490;2023-03-09T13:13:35;13.20;99.90
14521;DHT22;7347;50.844;4.490;2023-03-09T13:16:36;13.30;99.90
14521;DHT22;7347;50.844;4.490;2023-03-09T13:22:29;13.30;99.90
14521;DHT22;7347;50.844;4.490;2023-03-09T13:25:33;13.40;99.90
14521;DHT22;7347;50.844;4.490;2023-03-09T13:28:24;13.30;99.90
14521;DHT22;7347;50.844;4.490;2023-03-09T13:30:55;13.40;99.90
14521;DHT22;7347;50.844;4.490;2023-03-09T13:33:24;13.50;99.90
14521;DHT22;7347;50.844;4.490;2023-03-09T13:35:55;13.50;99.90
14521;DHT22;7347;50.844;4.490;2023-03-09T13:38:26;13.40;99.90
14521;DHT22;7347;50.844;4.490;2023-03-09T13:40:55;13.40;99.90
14521;DHT22;7347;50.844;4.490;2023-03-09T13:43:28;13.30;99.90
14521;DHT22;7347;50.844;4.490;2023-03-09T13:45:59;13.40;99.90
14521;DHT22;7347;50.844;4.490;2023-03-09T13:48:29;13.50;99.90
14521;DHT22;7347;50.844;4.490;2023-03-09T13:50:57;13.50;99.90
14521;DHT22;7347;50.844;4.490;2023-03-09T13:53:25;13.60;99.90
14521;DHT22;7347;50.844;4.490;2023-03-09T13:56:00;13.70;99.90
14521;DHT22;7347;50.844;4.490;2023-03-09T13:58:30;13.60;99.90
14521;DHT22;7347;50.844;4.490;2023-03-09T14:01:03;13.60;99.90
14521;DHT22;7347;50.844;4.490;2023-03-09T14:03:33;13.50;99.90
14521;DHT22;7347;50.844;4.490;2023-03-09T14:06:01;13.30;99.90
14521;DHT22;7347;50.844;4.490;2023-03-09T14:08:33;13.10;99.90
14521;DHT22;7347;50.844;4.490;2023-03-09T14:11:05;13.10;99.90
14521;DHT22;7347;50.844;4.490;2023-03-09T14:13:34;12.90;99.90
14521;DHT22;7347;50.844;4.490;2023-03-09T14:16:04;12.60;99.90
14521;DHT22;7347;50.844;4.490;2023-03-09T14:18:36;12.40;99.90
14521;DHT22;7347;50.844;4.490;2023-03-09T14:21:04;12.40;99.90
14521;DHT22;7347;50.844;4.490;2023-03-09T14:23:43;12.10;99.90
14521;DHT22;7347;50.844;4.490;2023-03-09T14:26:10;12.10;99.90
14521;DHT22;7347;50.844;4.490;2023-03-09T14:28:41;12.10;99.90
14521;DHT22;7347;50.844;4.490;2023-03-09T14:31:15;12.20;99.90
14521;DHT22;7347;50.844;4.490;2023-03-09T14:33:55;12.30;99.90
14521;DHT22;7347;50.844;4.490;2023-03-09T14:36:22;12.40;99.90
14521;DHT22;7347;50.844;4.490;2023-03-09T14:38:55;12.50;99.90
14521;DHT22;7347;50.844;4.490;2023-03-09T14:41:24;12.60;99.90
14521;DHT22;7347;50.844;4.490;2023-03-09T14:43:52;12.60;99.90
14521;DHT22;7347;50.844;4.490;2023-03-09T14:46:21;12.80;99.90
14521;DHT22;7347;50.844;4.490;2023-03-09T14:48:51;13.00;99.90
14521;DHT22;7347;50.844;4.490;2023-03-09T14:51:21;13.10;99.90
14521;DHT22;7347;50.844;4.490;2023-03-09T14:54:00;13.10;99.90
14521;DHT22;7347;50.844;4.490;2023-03-09T14:56:29;13.10;99.90
14521;DHT22;7347;50.844;4.490;2023-03-09T14:58:58;13.20;99.90
14521;DHT22;7347;50.844;4.490;2023-03-09T15:01:27;13.20;99.90
14521;DHT22;7347;50.844;4.490;2023-03-09T15:03:55;13.30;99.90
14521;DHT22;7347;50.844;4.490;2023-03-09T15:06:24;13.30;99.90
14521;DHT22;7347;50.844;4.490;2023-03-09T15:08:51;13.30;99.90
14521;DHT22;7347;50.844;4.490;2023-03-09T15:11:19;13.40;99.90
14521;DHT22;7347;50.844;4.490;2023-03-09T15:13:47;13.30;99.90
14521;DHT22;7347;50.844;4.490;2023-03-09T15:16:15;13.20;99.90
14521;DHT22;7347;50.844;4.490;2023-03-09T15:18:42;13.20;99.90
14521;DHT22;7347;50.844;4.490;2023-03-09T15:21:08;13.20;99.90
14521;DHT22;7347;50.844;4.490;2023-03-09T15:23:35;13.20;99.90
14521;DHT22;7347;50.844;4.490;2023-03-09T15:26:03;13.30;99.90
14521;DHT22;7347;50.844;4.490;2023-03-09T15:28:30;13.40;99.90
14521;DHT22;7347;50.844;4.490;2023-03-09T15:30:57;13.40;99.90
14521;DHT22;7347;50.844;4.490;2023-03-09T15:33:33;13.40;99.90
14521;DHT22;7347;50.844;4.490;2023-03-09T15:36:00;13.50;99.90
14521;DHT22;7347;50.844;4.490;2023-03-09T15:38:26;13.60;99.90
14521;DHT22;7347;50.844;4.490;2023-03-09T15:40:53;13.60;99.90
14521;DHT22;7347;50.844;4.490;2023-03-09T15:43:20;13.50;99.90
14521;DHT22;7347;50.844;4.490;2023-03-09T15:45:47;13.40;99.90
14521;DHT22;7347;50.844;4.490;2023-03-09T15:48:14;13.30;99.90
14521;DHT22;7347;50.844;4.490;2023-03-09T15:50:48;13.30;99.90
14521;DHT22;7347;50.844;4.490;2023-03-09T15:53:15;13.20;99.90
14521;DHT22;7347;50.844;4.490;2023-03-09T15:55:43;13.20;99.90
14521;DHT22;7347;50.844;4.490;2023-03-09T15:58:10;13.20;99.90
14521;DHT22;7347;50.844;4.490;2023-03-09T16:00:37;13.10;99.90
14521;DHT22;7347;50.844;4.490;2023-03-09T16:03:04;13.00;99.90
14521;DHT22;7347;50.844;4.490;2023-03-09T16:05:31;13.00;99.90
14521;DHT22;7347;50.844;4.490;2023-03-09T16:07:59;13.10;99.90
14521;DHT22;7347;50.844;4.490;2023-03-09T16:10:26;13.00;99.90
14521;DHT22;7347;50.844;4.490;2023-03-09T16:12:52;12.90;99.90
14521;DHT22;7347;50.844;4.490;2023-03-09T16:15:20;12.90;99.90
14521;DHT22;7347;50.844;4.490;2023-03-09T16:17:47;13.00;99.90
14521;DHT22;7347;50.844;4.490;2023-03-09T16:20:14;12.90;99.90
14521;DHT22;7347;50.844;4.490;2023-03-09T16:22:46;12.90;99.90
14521;DHT22;7347;50.844;4.490;2023-03-09T16:25:14;12.90;99.90
14521;DHT22;7347;50.844;4.490;2023-03-09T16:27:41;12.90;99.90
14521;DHT22;7347;50.844;4.490;2023-03-09T16:30:10;12.80;99.90
14521;DHT22;7347;50.844;4.490;2023-03-09T16:32:37;12.80;99.90
14521;DHT22;7347;50.844;4.490;2023-03-09T16:35:05;12.70;99.90
14521;DHT22;7347;50.844;4.490;2023-03-09T16:37:32;12.60;99.90
14521;DHT22;7347;50.844;4.490;2023-03-09T16:39:58;12.50;99.90
14521;DHT22;7347;50.844;4.490;2023-03-09T16:42:27;12.40;99.90
14521;DHT22;7347;50.844;4.490;2023-03-09T16:44:56;12.30;99.90
14521;DHT22;7347;50.844;4.490;2023-03-09T16:47:23;12.20;99.90
14521;DHT22;7347;50.844;4.490;2023-03-09T16:49:56;12.10;99.90
14521;DHT22;7347;50.844;4.490;2023-03-09T16:52:23;12.00;99.90
14521;DHT22;7347;50.844;4.490;2023-03-09T16:54:54;11.90;99.90
14521;DHT22;7347;50.844;4.490;2023-03-09T16:57:21;11.90;99.90
14521;DHT22;7347;50.844;4.490;2023-03-09T16:59:52;11.90;99.90
14521;DHT22;7347;50.844;4.490;2023-03-09T17:02:19;11.90;99.90
14521;DHT22;7347;50.844;4.490;2023-03-09T17:04:46;11.90;99.90
14521;DHT22;7347;50.844;4.490;2023-03-09T17:07:13;11.90;99.90
14521;DHT22;7347;50.844;4.490;2023-03-09T17:09:40;11.80;99.90
14521;DHT22;7347;50.844;4.490;2023-03-09T17:12:08;11.80;99.90
14521;DHT22;7347;50.844;4.490;2023-03-09T17:14:35;11.80;99.90
14521;DHT22;7347;50.844;4.490;2023-03-09T17:17:04;11.80;99.90
14521;DHT22;7347;50.844;4.490;2023-03-09T17:19:30;11.80;99.90
14521;DHT22;7347;50.844;4.490;2023-03-09T17:21:58;11.80;99.90
14521;DHT22;7347;50.844;4.490;2023-03-09T17:24:28;11.70;99.90
14521;DHT22;7347;50.844;4.490;2023-03-09T17:26:56;11.60;99.90
14521;DHT22;7347;50.844;4.490;2023-03-09T17:29:24;11.60;99.90
14521;DHT22;7347;50.844;4.490;2023-03-09T17:31:51;11.60;99.90
14521;DHT22;7347;50.844;4.490;2023-03-09T17:34:19;11.50;99.90
14521;DHT22;7347;50.844;4.490;2023-03-09T17:36:47;11.40;99.90
14521;DHT22;7347;50.844;4.490;2023-03-09T17:39:15;11.30;99.90
14521;DHT22;7347;50.844;4.490;2023-03-09T17:41:42;11.30;99.90
14521;DHT22;7347;50.844;4.490;2023-03-09T17:44:09;11.20;99.90
14521;DHT22;7347;50.844;4.490;2023-03-09T17:46:36;11.10;99.90
14521;DHT22;7347;50.844;4.490;2023-03-09T17:49:03;11.20;99.90
14521;DHT22;7347;50.844;4.490;2023-03-09T17:51:31;11.10;99.90
14521;DHT22;7347;50.844;4.490;2023-03-09T17:53:58;11.10;99.90
14521;DHT22;7347;50.844;4.490;2023-03-09T17:56:25;11.00;99.90
14521;DHT22;7347;50.844;4.490;2023-03-09T17:58:52;10.90;99.90
14521;DHT22;7347;50.844;4.490;2023-03-09T18:01:20;11.00;99.90
14521;DHT22;7347;50.844;4.490;2023-03-09T18:03:49;11.00;99.90
14521;DHT22;7347;50.844;4.490;2023-03-09T18:06:22;11.00;99.90
14521;DHT22;7347;50.844;4.490;2023-03-09T18:08:51;10.90;99.90
14521;DHT22;7347;50.844;4.490;2023-03-09T18:11:20;11.00;99.90
14521;DHT22;7347;50.844;4.490;2023-03-09T18:13:48;11.00;99.90
14521;DHT22;7347;50.844;4.490;2023-03-09T18:16:15;11.00;99.90
14521;DHT22;7347;50.844;4.490;2023-03-09T18:18:42;11.00;99.90
14521;DHT22;7347;50.844;4.490;2023-03-09T18:21:11;11.00;99.90
14521;DHT22;7347;50.844;4.490;2023-03-09T18:23:38;11.00;99.90
14521;DHT22;7347;50.844;4.490;2023-03-09T18:26:14;11.10;99.90
14521;DHT22;7347;50.844;4.490;2023-03-09T18:28:42;11.10;99.90
14521;DHT22;7347;50.844;4.490;2023-03-09T18:31:09;11.10;99.90
14521;DHT22;7347;50.844;4.490;2023-03-09T18:33:35;11.10;99.90
14521;DHT22;7347;50.844;4.490;2023-03-09T18:36:05;11.10;99.90
14521;DHT22;7347;50.844;4.490;2023-03-09T18:38:34;11.10;99.90
14521;DHT22;7347;50.844;4.490;2023-03-09T18:41:00;11.10;99.90
14521;DHT22;7347;50.844;4.490;2023-03-09T18:43:29;11.00;99.90
14521;DHT22;7347;50.844;4.490;2023-03-09T18:45:56;11.00;99.90
14521;DHT22;7347;50.844;4.490;2023-03-09T18:48:22;10.90;99.90
14521;DHT22;7347;50.844;4.490;2023-03-09T18:50:51;10.90;99.90
14521;DHT22;7347;50.844;4.490;2023-03-09T18:53:19;10.90;99.90
14521;DHT22;7347;50.844;4.490;2023-03-09T18:55:53;10.90;99.90
14521;DHT22;7347;50.844;4.490;2023-03-09T18:58:20;10.90;99.90
14521;DHT22;7347;50.844;4.490;2023-03-09T19:00:48;10.90;99.90
14521;DHT22;7347;50.844;4.490;2023-03-09T19:03:15;10.90;99.90
14521;DHT22;7347;50.844;4.490;2023-03-09T19:05:43;10.90;99.90
14521;DHT22;7347;50.844;4.490;2023-03-09T19:08:10;10.90;99.90
14521;DHT22;7347;50.844;4.490;2023-03-09T19:10:38;11.00;99.90
14521;DHT22;7347;50.844;4.490;2023-03-09T19:13:05;11.10;99.90
14521;DHT22;7347;50.844;4.490;2023-03-09T19:15:37;11.10;99.90
14521;DHT22;7347;50.844;4.490;2023-03-09T19:18:06;11.10;99.90
14521;DHT22;7347;50.844;4.490;2023-03-09T19:20:33;11.20;99.90
14521;DHT22;7347;50.844;4.490;2023-03-09T19:23:00;11.20;99.90
14521;DHT22;7347;50.844;4.490;2023-03-09T19:25:27;11.10;99.90
14521;DHT22;7347;50.844;4.490;2023-03-09T19:27:53;11.10;99.90
14521;DHT22;7347;50.844;4.490;2023-03-09T19:30:21;11.10;99.90
14521;DHT22;7347;50.844;4.490;2023-03-09T19:32:48;11.10;99.90
14521;DHT22;7347;50.844;4.490;2023-03-09T19:35:16;11.10;99.90
14521;DHT22;7347;50.844;4.490;2023-03-09T19:37:45;11.20;99.90
14521;DHT22;7347;50.844;4.490;2023-03-09T19:40:12;11.20;99.90
14521;DHT22;7347;50.844;4.490;2023-03-09T19:42:42;11.20;99.90
14521;DHT22;7347;50.844;4.490;2023-03-09T19:45:10;11.20;99.90
14521;DHT22;7347;50.844;4.490;2023-03-09T19:47:37;11.10;99.90
14521;DHT22;7347;50.844;4.490;2023-03-09T19:50:06;11.10;99.90
14521;DHT22;7347;50.844;4.490;2023-03-09T19:52:35;11.20;99.90
14521;DHT22;7347;50.844;4.490;2023-03-09T19:55:02;11.20;99.90
14521;DHT22;7347;50.844;4.490;2023-03-09T19:57:29;11.20;99.90
14521;DHT22;7347;50.844;4.490;2023-03-09T19:59:56;11.20;99.90
14521;DHT22;7347;50.844;4.490;2023-03-09T20:02:25;11.10;99.90
14521;DHT22;7347;50.844;4.490;2023-03-09T20:04:51;11.10;99.90
14521;DHT22;7347;50.844;4.490;2023-03-09T20:07:18;11.10;99.90
14521;DHT22;7347;50.844;4.490;2023-03-09T20:09:46;11.10;99.90
14521;DHT22;7347;50.844;4.490;2023-03-09T20:12:13;11.10;99.90
14521;DHT22;7347;50.844;4.490;2023-03-09T20:14:40;11.10;99.90
14521;DHT22;7347;50.844;4.490;2023-03-09T20:17:06;11.10;99.90
14521;DHT22;7347;50.844;4.490;2023-03-09T20:19:33;11.10;99.90
14521;DHT22;7347;50.844;4.490;2023-03-09T20:22:00;11.10;99.90
14521;DHT22;7347;50.844;4.490;2023-03-09T20:24:32;11.10;99.90
14521;DHT22;7347;50.844;4.490;2023-03-09T20:27:00;11.20;99.90
14521;DHT22;7347;50.844;4.490;2023-03-09T20:29:27;11.10;99.90
14521;DHT22;7347;50.844;4.490;2023-03-09T20:31:56;11.10;99.90
14521;DHT22;7347;50.844;4.490;2023-03-09T20:34:23;11.10;99.90
14521;DHT22;7347;50.844;4.490;2023-03-09T20:36:50;11.20;99.90
14521;DHT22;7347;50.844;4.490;2023-03-09T20:39:17;11.20;99.90
14521;DHT22;7347;50.844;4.490;2023-03-09T20:41:44;11.20;99.90
14521;DHT22;7347;50.844;4.490;2023-03-09T20:44:12;11.20;99.90
14521;DHT22;7347;50.844;4.490;2023-03-09T20:46:39;11.20;99.90
14521;DHT22;7347;50.844;4.490;2023-03-09T20:49:06;11.20;99.90
14521;DHT22;7347;50.844;4.490;2023-03-09T20:51:33;11.20;99.90
14521;DHT22;7347;50.844;4.490;2023-03-09T20:54:00;11.20;99.90
14521;DHT22;7347;50.844;4.490;2023-03-09T20:56:28;11.20;99.90
14521;DHT22;7347;50.844;4.490;2023-03-09T20:58:55;11.20;99.90
14521;DHT22;7347;50.844;4.490;2023-03-09T21:01:24;11.20;99.90
14521;DHT22;7347;50.844;4.490;2023-03-09T21:03:51;11.10;99.90
14521;DHT22;7347;50.844;4.490;2023-03-09T21:06:18;11.10;99.90
14521;DHT22;7347;50.844;4.490;2023-03-09T21:08:48;11.10;99.90
14521;DHT22;7347;50.844;4.490;2023-03-09T21:11:16;11.20;99.90
14521;DHT22;7347;50.844;4.490;2023-03-09T21:13:43;11.10;99.90
14521;DHT22;7347;50.844;4.490;2023-03-09T21:16:12;11.10;99.90
14521;DHT22;7347;50.844;4.490;2023-03-09T21:18:42;11.10;99.90
14521;DHT22;7347;50.844;4.490;2023-03-09T21:21:08;11.10;99.90
14521;DHT22;7347;50.844;4.490;2023-03-09T21:23:35;11.10;99.90
14521;DHT22;7347;50.844;4.490;2023-03-09T21:26:04;11.10;99.90
14521;DHT22;7347;50.844;4.490;2023-03-09T21:28:31;11.10;99.90
14521;DHT22;7347;50.844;4.490;2023-03-09T21:30:58;11.10;99.90
14521;DHT22;7347;50.844;4.490;2023-03-09T21:33:26;11.10;99.90
14521;DHT22;7347;50.844;4.490;2023-03-09T21:35:54;11.10;99.90
14521;DHT22;7347;50.844;4.490;2023-03-09T21:38:21;11.10;99.90
14521;DHT22;7347;50.844;4.490;2023-03-09T21:40:48;11.10;99.90
14521;DHT22;7347;50.844;4.490;2023-03-09T21:43:15;11.10;99.90
14521;DHT22;7347;50.844;4.490;2023-03-09T21:45:42;11.10;99.90
14521;DHT22;7347;50.844;4.490;2023-03-09T21:48:09;11.10;99.90
14521;DHT22;7347;50.844;4.490;2023-03-09T21:50:37;11.00;99.90
14521;DHT22;7347;50.844;4.490;2023-03-09T21:53:05;11.10;99.90
14521;DHT22;7347;50.844;4.490;2023-03-09T21:55:36;11.10;99.90
14521;DHT22;7347;50.844;4.490;2023-03-09T21:58:03;11.10;99.90
14521;DHT22;7347;50.844;4.490;2023-03-09T22:00:30;11.10;99.90
14521;DHT22;7347;50.844;4.490;2023-03-09T22:02:57;11.10;99.90
14521;DHT22;7347;50.844;4.490;2023-03-09T22:05:24;11.20;99.90
14521;DHT22;7347;50.844;4.490;2023-03-09T22:07:53;11.10;99.90
14521;DHT22;7347;50.844;4.490;2023-03-09T22:10:22;11.10;99.90
14521;DHT22;7347;50.844;4.490;2023-03-09T22:12:49;11.10;99.90
14521;DHT22;7347;50.844;4.490;2023-03-09T22:15:16;11.10;99.90
14521;DHT22;7347;50.844;4.490;2023-03-09T22:17:43;11.00;99.90
14521;DHT22;7347;50.844;4.490;2023-03-09T22:20:11;11.00;99.90
14521;DHT22;7347;50.844;4.490;2023-03-09T22:22:39;10.90;99.90
14521;DHT22;7347;50.844;4.490;2023-03-09T22:25:08;10.80;99.90
14521;DHT22;7347;50.844;4.490;2023-03-09T22:27:37;10.80;99.90
14521;DHT22;7347;50.844;4.490;2023-03-09T22:30:06;10.80;99.90
14521;DHT22;7347;50.844;4.490;2023-03-09T22:32:36;10.80;99.90
14521;DHT22;7347;50.844;4.490;2023-03-09T22:35:03;10.70;99.90
14521;DHT22;7347;50.844;4.490;2023-03-09T22:37:31;10.70;99.90
14521;DHT22;7347;50.844;4.490;2023-03-09T22:39:59;10.70;99.90
14521;DHT22;7347;50.844;4.490;2023-03-09T22:42:26;10.70;99.90
14521;DHT22;7347;50.844;4.490;2023-03-09T22:44:54;10.70;99.90
14521;DHT22;7347;50.844;4.490;2023-03-09T22:47:21;10.70;99.90
14521;DHT22;7347;50.844;4.490;2023-03-09T22:49:47;10.70;99.90
14521;DHT22;7347;50.844;4.490;2023-03-09T22:52:14;10.70;99.90
14521;DHT22;7347;50.844;4.490;2023-03-09T22:54:44;10.70;99.90
14521;DHT22;7347;50.844;4.490;2023-03-09T22:57:11;10.70;99.90
14521;DHT22;7347;50.844;4.490;2023-03-09T22:59:37;10.70;99.90
14521;DHT22;7347;50.844;4.490;2023-03-09T23:02:07;10.70;99.90
